createdAt,value
2022-10-02T00:02:01.206Z,693.77
2022-10-02T00:04:34.287Z,692.30
2022-10-02T00:07:07.508Z,699.20
2022-10-02T00:09:40.023Z,691.43
2022-10-02T00:12:10.937Z,696.77
2022-10-02T00:14:41.617Z,684.63
2022-10-02T00:17:12.331Z,691.90
2022-10-02T00:19:40.265Z,692.80
2022-10-02T00:22:35.911Z,692.00
2022-10-02T00:25:07.935Z,685.80
2022-10-02T00:27:50.909Z,695.53
2022-10-02T00:30:19.531Z,685.47
2022-10-02T00:32:59.406Z,695.40
2022-10-02T00:35:36.120Z,692.13
2022-10-02T00:38:13.593Z,694.40
2022-10-02T00:40:53.976Z,698.63
2022-10-02T00:43:27.185Z,689.03
2022-10-02T00:46:17.809Z,698.27
2022-10-02T00:48:54.687Z,688.87
2022-10-02T00:51:38.205Z,688.33
2022-10-02T00:54:20.932Z,688.10
2022-10-02T00:56:54.176Z,692.40
2022-10-02T00:59:44.757Z,702.60
2022-10-02T01:02:15.655Z,694.97
2022-10-02T01:04:43.726Z,708.03
2022-10-02T01:07:12.657Z,715.67
2022-10-02T01:09:42.890Z,710.27
2022-10-02T01:12:11.032Z,705.80
2022-10-02T01:14:41.337Z,715.77
2022-10-02T01:17:25.415Z,703.23
2022-10-02T01:19:53.380Z,708.23
2022-10-02T01:22:26.626Z,715.00
2022-10-02T01:24:56.169Z,710.57
2022-10-02T01:27:24.904Z,712.87
2022-10-02T01:29:56.769Z,714.80
2022-10-02T01:32:26.499Z,712.83
2022-10-02T01:34:54.912Z,717.33
2022-10-02T01:37:24.959Z,718.93
2022-10-02T01:39:53.262Z,717.90
2022-10-02T01:42:22.573Z,711.13
2022-10-02T01:44:50.490Z,722.70
2022-10-02T01:47:20.924Z,719.37
2022-10-02T01:49:58.889Z,711.37
2022-10-02T01:52:42.632Z,713.50
2022-10-02T01:55:26.116Z,712.70
2022-10-02T01:58:01.475Z,709.53
2022-10-02T02:00:40.278Z,712.87
2022-10-02T02:03:14.311Z,716.67
2022-10-02T02:05:47.223Z,713.30
2022-10-02T02:08:18.382Z,720.03
2022-10-02T02:10:51.392Z,725.63
2022-10-02T02:13:26.585Z,728.73
2022-10-02T02:15:58.991Z,725.00
2022-10-02T02:18:29.990Z,719.77
2022-10-02T02:21:00.805Z,721.37
2022-10-02T02:23:32.246Z,719.03
2022-10-02T02:26:04.242Z,718.53
2022-10-02T02:28:34.860Z,722.87
2022-10-02T02:31:03.243Z,722.33
2022-10-02T02:33:35.916Z,725.40
2022-10-02T02:36:07.944Z,723.87
2022-10-02T02:38:39.504Z,723.10
2022-10-02T02:41:14.675Z,717.73
2022-10-02T02:43:47.587Z,720.03
2022-10-02T02:46:20.357Z,721.40
2022-10-02T02:48:51.441Z,719.67
2022-10-02T02:51:22.776Z,720.83
2022-10-02T02:53:53.264Z,727.33
2022-10-02T02:56:22.302Z,721.97
2022-10-02T02:58:54.788Z,725.33
2022-10-02T03:01:22.783Z,711.17
2022-10-02T03:03:50.697Z,732.10
2022-10-02T03:06:33.259Z,741.40
2022-10-02T03:09:02.094Z,726.70
2022-10-02T03:11:42.924Z,713.70
2022-10-02T03:14:27.605Z,719.07
2022-10-02T03:17:03.292Z,718.60
2022-10-02T03:19:42.011Z,721.77
2022-10-02T03:22:15.041Z,721.70
2022-10-02T03:24:48.077Z,712.20
2022-10-02T03:27:21.938Z,716.20
2022-10-02T03:29:54.619Z,706.97
2022-10-02T03:32:23.131Z,717.90
2022-10-02T03:34:51.045Z,718.67
2022-10-02T03:37:19.331Z,723.37
2022-10-02T03:39:47.320Z,722.50
2022-10-02T03:42:16.088Z,709.87
2022-10-02T03:44:44.250Z,720.10
2022-10-02T03:47:13.564Z,713.47
2022-10-02T03:49:41.734Z,714.47
2022-10-02T03:52:14.953Z,720.60
2022-10-02T03:54:42.916Z,719.03
2022-10-02T03:57:13.801Z,716.60
2022-10-02T03:59:45.128Z,723.20
2022-10-02T04:02:22.541Z,719.93
2022-10-02T04:04:54.417Z,710.33
2022-10-02T04:07:27.769Z,721.80
2022-10-02T04:10:05.007Z,717.00
2022-10-02T04:12:35.880Z,726.50
2022-10-02T04:15:10.714Z,724.57
2022-10-02T04:17:44.941Z,734.77
2022-10-02T04:20:17.530Z,742.10
2022-10-02T04:22:49.041Z,740.63
2022-10-02T04:25:19.542Z,738.57
2022-10-02T04:27:51.829Z,743.97
2022-10-02T04:30:20.899Z,743.70
2022-10-02T04:32:50.642Z,749.60
2022-10-02T04:35:24.600Z,753.53
2022-10-02T04:38:03.015Z,763.90
2022-10-02T04:40:50.473Z,757.47
2022-10-02T04:43:28.580Z,746.30
2022-10-02T04:46:05.390Z,758.17
2022-10-02T04:49:03.569Z,757.33
2022-10-02T04:51:43.829Z,755.33
2022-10-02T04:54:32.417Z,759.43
2022-10-02T04:57:11.011Z,764.03
2022-10-02T04:59:52.781Z,770.17
2022-10-02T05:02:33.053Z,770.90
2022-10-02T05:05:12.808Z,776.63
2022-10-02T05:08:14.353Z,763.40
2022-10-02T05:11:00.942Z,765.33
2022-10-02T05:13:52.228Z,765.43
2022-10-02T05:16:29.376Z,767.23
2022-10-02T05:19:24.643Z,776.53
2022-10-02T05:22:14.913Z,771.03
2022-10-02T05:24:52.015Z,776.17
2022-10-02T05:27:34.737Z,780.13
2022-10-02T05:30:08.655Z,779.37
2022-10-02T05:33:07.321Z,778.70
2022-10-02T05:35:50.133Z,785.43
2022-10-02T05:38:25.354Z,781.40
2022-10-02T05:41:00.117Z,785.73
2022-10-02T05:43:32.205Z,793.07
2022-10-02T05:46:01.687Z,784.43
2022-10-02T05:48:31.604Z,794.20
2022-10-02T05:51:02.874Z,793.93
2022-10-02T05:53:35.561Z,799.03
2022-10-02T05:56:06.664Z,795.87
2022-10-02T05:58:37.804Z,795.80
2022-10-02T06:01:09.240Z,803.83
2022-10-02T06:03:40.542Z,800.90
2022-10-02T06:06:12.487Z,798.03
2022-10-02T06:08:44.386Z,809.67
2022-10-02T06:11:17.148Z,799.53
2022-10-02T06:13:48.864Z,798.63
2022-10-02T06:16:21.633Z,801.70
2022-10-02T06:18:54.090Z,803.57
2022-10-02T06:21:29.433Z,803.43
2022-10-02T06:24:03.688Z,804.63
2022-10-02T06:26:39.858Z,799.53
2022-10-02T06:29:16.046Z,802.47
2022-10-02T06:31:49.932Z,804.37
2022-10-02T06:34:17.927Z,807.13
2022-10-02T06:36:59.412Z,808.00
2022-10-02T06:39:40.910Z,802.57
2022-10-02T06:42:18.803Z,809.13
2022-10-02T06:44:54.585Z,811.40
2022-10-02T06:47:35.362Z,808.70
2022-10-02T06:50:20.404Z,805.30
2022-10-02T06:52:55.372Z,799.70
2022-10-02T06:55:35.250Z,814.83
2022-10-02T06:58:22.492Z,805.97
2022-10-02T07:00:54.915Z,807.50
2022-10-02T07:03:39.794Z,810.90
2022-10-02T07:06:14.128Z,806.40
2022-10-02T07:08:57.309Z,820.33
2022-10-02T07:11:29.185Z,814.67
2022-10-02T07:14:09.422Z,810.67
2022-10-02T07:16:52.206Z,812.30
2022-10-02T07:19:34.894Z,814.30
2022-10-02T07:22:39.493Z,811.37
2022-10-02T07:25:16.065Z,812.47
2022-10-02T07:27:50.376Z,816.63
2022-10-02T07:30:19.356Z,823.07
2022-10-02T07:32:48.676Z,821.13
2022-10-02T07:35:26.388Z,818.03
2022-10-02T07:38:04.221Z,821.03
2022-10-02T07:40:36.217Z,818.67
2022-10-02T07:43:17.968Z,821.80
2022-10-02T07:45:50.124Z,820.47
2022-10-02T07:48:43.954Z,828.40
2022-10-02T07:51:42.573Z,819.20
2022-10-02T07:54:33.737Z,822.30
2022-10-02T07:57:09.754Z,815.70
2022-10-02T07:59:41.300Z,822.80
2022-10-02T08:02:17.490Z,828.77
2022-10-02T08:04:46.116Z,828.43
2022-10-02T08:07:14.188Z,827.73
2022-10-02T08:09:45.552Z,823.57
2022-10-02T08:12:24.057Z,812.80
2022-10-02T08:14:56.080Z,818.03
2022-10-02T08:17:29.975Z,816.60
2022-10-02T08:20:03.172Z,808.93
2022-10-02T08:22:35.361Z,814.93
2022-10-02T08:25:07.612Z,819.73
2022-10-02T08:27:47.056Z,813.87
2022-10-02T08:30:16.895Z,818.90
2022-10-02T08:32:45.045Z,813.10
2022-10-02T08:35:14.221Z,823.90
2022-10-02T08:37:49.479Z,814.83
2022-10-02T08:40:37.128Z,816.03
2022-10-02T08:43:22.803Z,812.53
2022-10-02T08:46:26.504Z,808.10
2022-10-02T08:49:32.149Z,809.53
2022-10-02T08:52:35.423Z,814.13
2022-10-02T08:55:26.534Z,798.63
2022-10-02T08:58:14.342Z,803.83
2022-10-02T09:00:50.937Z,799.63
2022-10-02T09:04:00.587Z,804.13
2022-10-02T09:06:58.253Z,800.70
2022-10-02T09:09:59.894Z,802.43
2022-10-02T09:12:42.737Z,803.90
2022-10-02T09:15:16.899Z,798.93
2022-10-02T09:17:49.624Z,795.83
2022-10-02T09:20:43.442Z,802.57
2022-10-02T09:23:57.591Z,785.17
2022-10-02T09:26:38.106Z,778.80
2022-10-02T09:29:28.216Z,784.70
2022-10-02T09:32:43.281Z,779.30
2022-10-02T09:35:35.019Z,759.90
2022-10-02T09:38:21.138Z,750.47
2022-10-02T09:41:27.937Z,763.40
2022-10-02T09:44:34.972Z,752.93
2022-10-02T09:47:41.523Z,744.43
2022-10-02T09:50:24.259Z,731.33
2022-10-02T09:53:12.134Z,733.87
2022-10-02T09:55:59.407Z,733.33
2022-10-02T09:59:09.516Z,737.80
2022-10-02T10:02:02.955Z,730.70
2022-10-02T10:05:07.334Z,716.10
2022-10-02T10:08:17.516Z,713.30
2022-10-02T10:11:10.620Z,706.77
2022-10-02T10:13:55.876Z,718.47
2022-10-02T10:16:43.246Z,714.63
2022-10-02T10:19:42.008Z,717.17
2022-10-02T10:22:51.066Z,717.50
2022-10-02T10:25:54.902Z,708.43
2022-10-02T10:29:00.718Z,707.77
2022-10-02T10:32:02.419Z,711.03
2022-10-02T10:35:07.325Z,702.47
2022-10-02T10:38:14.113Z,701.77
2022-10-02T10:41:03.522Z,718.20
2022-10-02T10:44:05.029Z,715.63
2022-10-02T10:46:47.704Z,713.50
2022-10-02T10:49:31.336Z,727.63
2022-10-02T10:52:07.604Z,724.00
2022-10-02T10:54:57.297Z,726.10
2022-10-02T10:57:51.989Z,722.40
2022-10-02T11:00:23.302Z,729.80
2022-10-02T11:03:18.655Z,734.70
2022-10-02T11:06:23.432Z,739.63
2022-10-02T11:09:13.457Z,733.63
2022-10-02T11:11:50.959Z,736.63
2022-10-02T11:14:28.159Z,740.70
2022-10-02T11:17:15.473Z,737.87
2022-10-02T11:19:57.294Z,737.77
2022-10-02T11:22:38.208Z,734.40
2022-10-02T11:25:20.831Z,740.07
2022-10-02T11:28:10.201Z,726.10
2022-10-02T11:30:49.464Z,724.93
2022-10-02T11:33:34.974Z,730.20
2022-10-02T11:36:24.704Z,724.70
2022-10-02T11:39:15.154Z,720.90
2022-10-02T11:42:15.440Z,711.60
2022-10-02T11:44:57.369Z,719.27
2022-10-02T11:47:48.234Z,715.73
2022-10-02T11:50:42.609Z,712.93
2022-10-02T11:53:40.136Z,713.73
2022-10-02T11:56:29.307Z,716.30
2022-10-02T11:59:10.042Z,714.43
2022-10-02T12:01:45.385Z,715.23
2022-10-02T12:04:32.919Z,731.00
2022-10-02T12:07:14.834Z,715.93
2022-10-02T12:09:57.310Z,716.07
2022-10-02T12:12:40.535Z,711.03
2022-10-02T12:15:15.127Z,707.20
2022-10-02T12:18:05.737Z,717.97
2022-10-02T12:21:02.756Z,707.83
2022-10-02T12:23:58.933Z,706.97
2022-10-02T12:26:55.908Z,712.37
2022-10-02T12:29:40.439Z,712.23
2022-10-02T12:32:20.084Z,717.90
2022-10-02T12:34:58.243Z,717.70
2022-10-02T12:37:31.641Z,709.97
2022-10-02T12:40:10.169Z,719.53
2022-10-02T12:43:05.341Z,722.07
2022-10-02T12:45:52.753Z,717.67
2022-10-02T12:48:37.002Z,704.20
2022-10-02T12:51:39.267Z,705.83
2022-10-02T12:54:39.160Z,700.70
2022-10-02T12:57:55.922Z,703.63
2022-10-02T13:00:26.639Z,710.33
2022-10-02T13:03:34.648Z,707.97
2022-10-02T13:06:25.991Z,700.73
2022-10-02T13:09:11.399Z,696.57
2022-10-02T13:11:54.962Z,702.80
2022-10-02T13:14:37.306Z,698.70
2022-10-02T13:17:18.232Z,701.70
2022-10-02T13:19:57.690Z,699.53
2022-10-02T13:22:31.745Z,702.63
2022-10-02T13:25:18.571Z,696.73
2022-10-02T13:27:52.872Z,691.43
2022-10-02T13:30:21.957Z,684.00
2022-10-02T13:33:12.762Z,706.07
2022-10-02T13:36:01.750Z,705.93
2022-10-02T13:38:44.959Z,694.63
2022-10-02T13:41:21.898Z,684.57
2022-10-02T13:44:07.081Z,697.70
2022-10-02T13:46:46.828Z,697.57
2022-10-02T13:49:21.816Z,690.67
2022-10-02T13:51:53.846Z,687.23
2022-10-02T13:54:36.923Z,688.57
2022-10-02T13:57:11.449Z,682.80
2022-10-02T13:59:49.457Z,692.20
2022-10-02T14:02:39.608Z,681.73
2022-10-02T14:05:18.525Z,688.50
2022-10-02T14:08:01.448Z,696.80
2022-10-02T14:10:37.821Z,703.47
2022-10-02T14:13:17.005Z,691.13
2022-10-02T14:15:52.824Z,712.80
2022-10-02T14:18:40.214Z,704.63
2022-10-02T14:21:20.945Z,697.60
2022-10-02T14:23:59.635Z,696.23
2022-10-02T14:26:36.992Z,696.93
2022-10-02T14:29:11.930Z,694.80
2022-10-02T14:32:02.685Z,702.50
2022-10-02T14:34:50.361Z,691.33
2022-10-02T14:37:30.797Z,703.67
2022-10-02T14:40:01.057Z,702.30
2022-10-02T14:42:39.173Z,701.77
2022-10-02T14:45:28.896Z,701.30
2022-10-02T14:48:10.087Z,684.57
2022-10-02T14:50:48.409Z,686.97
2022-10-02T14:53:49.605Z,706.43
2022-10-02T14:56:57.314Z,706.87
2022-10-02T14:59:39.608Z,705.60
2022-10-02T15:02:23.006Z,696.97
2022-10-02T15:04:56.181Z,703.83
2022-10-02T15:07:25.975Z,706.87
2022-10-02T15:10:02.974Z,712.57
2022-10-02T15:12:44.277Z,716.90
2022-10-02T15:15:15.446Z,707.30
2022-10-02T15:17:57.468Z,711.40
2022-10-02T15:20:41.512Z,710.67
2022-10-02T15:23:12.958Z,708.67
2022-10-02T15:25:55.375Z,705.93
2022-10-02T15:28:36.815Z,723.27
2022-10-02T15:31:13.078Z,711.57
2022-10-02T15:33:43.953Z,722.83
2022-10-02T15:36:20.721Z,724.97
2022-10-02T15:39:00.957Z,731.73
2022-10-02T15:41:43.473Z,716.43
2022-10-02T15:44:43.670Z,727.10
2022-10-02T15:47:24.026Z,720.00
2022-10-02T15:50:07.061Z,723.10
2022-10-02T15:52:43.280Z,725.87
2022-10-02T15:55:20.721Z,730.17
2022-10-02T15:57:59.170Z,726.97
2022-10-02T16:00:29.735Z,716.33
2022-10-02T16:03:13.547Z,718.97
2022-10-02T16:05:51.240Z,718.97
2022-10-02T16:08:41.029Z,737.93
2022-10-02T16:11:20.481Z,732.17
2022-10-02T16:13:56.771Z,719.93
2022-10-02T16:16:49.933Z,736.37
2022-10-02T16:19:24.299Z,729.20
2022-10-02T16:22:05.020Z,733.77
2022-10-02T16:24:44.790Z,731.60
2022-10-02T16:27:21.993Z,735.33
2022-10-02T16:30:02.932Z,726.17
2022-10-02T16:32:40.245Z,729.47
2022-10-02T16:35:48.065Z,739.27
2022-10-02T16:38:19.701Z,739.47
2022-10-02T16:40:56.754Z,738.77
2022-10-02T16:43:48.622Z,740.83
2022-10-02T16:46:25.591Z,730.87
2022-10-02T16:48:57.565Z,740.23
2022-10-02T16:51:36.079Z,738.57
2022-10-02T16:54:15.595Z,728.10
2022-10-02T16:56:47.490Z,730.70
2022-10-02T16:59:20.145Z,743.87
2022-10-02T17:02:15.946Z,731.30
2022-10-02T17:04:45.652Z,730.87
2022-10-02T17:07:24.896Z,741.57
2022-10-02T17:09:56.247Z,742.67
2022-10-02T17:12:29.554Z,737.40
2022-10-02T17:15:00.939Z,734.40
2022-10-02T17:17:47.336Z,738.13
2022-10-02T17:20:21.905Z,742.00
2022-10-02T17:22:56.543Z,740.47
2022-10-02T17:25:29.844Z,734.97
2022-10-02T17:28:01.449Z,739.17
2022-10-02T17:30:31.490Z,744.67
2022-10-02T17:33:13.533Z,739.17
2022-10-02T17:35:48.897Z,740.60
2022-10-02T17:38:33.057Z,747.17
2022-10-02T17:41:20.974Z,743.93
2022-10-02T17:43:58.517Z,745.23
2022-10-02T17:46:50.799Z,733.17
2022-10-02T17:49:27.490Z,725.03
2022-10-02T17:52:21.655Z,731.90
2022-10-02T17:55:14.276Z,735.03
2022-10-02T17:57:56.492Z,740.47
2022-10-02T18:00:26.251Z,742.20
2022-10-02T18:03:12.383Z,741.63
2022-10-02T18:05:52.155Z,741.30
2022-10-02T18:08:41.934Z,754.07
2022-10-02T18:11:13.112Z,746.43
2022-10-02T18:13:59.441Z,754.83
2022-10-02T18:16:47.666Z,738.23
2022-10-02T18:19:28.737Z,738.63
2022-10-02T18:22:10.827Z,733.10
2022-10-02T18:24:52.021Z,742.73
2022-10-02T18:27:37.741Z,736.53
2022-10-02T18:30:13.712Z,739.90
2022-10-02T18:32:57.316Z,735.87
2022-10-02T18:35:49.883Z,736.40
2022-10-02T18:38:27.419Z,729.27
2022-10-02T18:41:05.965Z,734.07
2022-10-02T18:44:01.346Z,737.10
2022-10-02T18:46:44.795Z,734.43
2022-10-02T18:49:38.037Z,731.43
2022-10-02T18:52:23.477Z,743.33
2022-10-02T18:55:06.018Z,730.03
2022-10-02T18:57:47.250Z,728.67
2022-10-02T19:00:19.236Z,748.03
2022-10-02T19:03:04.560Z,747.63
2022-10-02T19:05:36.497Z,744.20
2022-10-02T19:08:15.868Z,758.53
2022-10-02T19:10:50.849Z,754.30
2022-10-02T19:13:27.297Z,756.20
2022-10-02T19:15:58.555Z,745.97
2022-10-02T19:18:38.306Z,757.53
2022-10-02T19:21:15.148Z,751.33
2022-10-02T19:23:48.956Z,761.80
2022-10-02T19:26:22.737Z,746.93
2022-10-02T19:28:56.467Z,752.80
2022-10-02T19:31:28.047Z,766.97
2022-10-02T19:34:02.252Z,763.37
2022-10-02T19:36:38.251Z,762.53
2022-10-02T19:39:14.652Z,768.50
2022-10-02T19:41:46.235Z,764.67
2022-10-02T19:44:21.279Z,763.37
2022-10-02T19:46:53.052Z,762.03
2022-10-02T19:49:28.414Z,764.40
2022-10-02T19:51:56.972Z,778.57
2022-10-02T19:54:28.233Z,773.73
2022-10-02T19:57:03.417Z,780.57
2022-10-02T19:59:43.165Z,777.23
2022-10-02T20:02:20.143Z,768.60
2022-10-02T20:04:56.061Z,773.40
2022-10-02T20:07:26.898Z,773.87
2022-10-02T20:09:57.882Z,779.60
2022-10-02T20:12:33.361Z,771.87
2022-10-02T20:15:05.184Z,777.80
2022-10-02T20:17:34.333Z,787.77
2022-10-02T20:20:04.544Z,783.90
2022-10-02T20:22:38.101Z,779.00
2022-10-02T20:25:10.596Z,781.67
2022-10-02T20:27:46.337Z,773.03
2022-10-02T20:30:18.104Z,785.40
2022-10-02T20:32:51.362Z,790.00
2022-10-02T20:35:24.066Z,773.23
2022-10-02T20:37:54.631Z,774.00
2022-10-02T20:40:25.573Z,784.47
2022-10-02T20:43:01.316Z,782.87
2022-10-02T20:45:36.656Z,778.27
2022-10-02T20:49:06.364Z,770.20
2022-10-02T20:51:49.294Z,772.90
2022-10-02T20:54:28.549Z,769.67
2022-10-02T20:57:49.608Z,771.97
2022-10-02T21:00:23.502Z,759.90
2022-10-02T21:03:07.557Z,781.30
2022-10-02T21:06:11.017Z,778.77
2022-10-02T21:09:04.752Z,766.87
2022-10-02T21:11:52.934Z,769.60
2022-10-02T21:14:53.861Z,778.63
2022-10-02T21:17:45.670Z,766.90
2022-10-02T21:20:53.604Z,775.10
2022-10-02T21:23:55.983Z,771.50
2022-10-02T21:26:44.380Z,774.77
2022-10-02T21:29:44.575Z,779.53
2022-10-02T21:32:46.206Z,766.83
2022-10-02T21:35:17.539Z,767.13
2022-10-02T21:38:04.010Z,776.50
2022-10-02T21:41:02.361Z,775.10
2022-10-02T21:44:04.664Z,760.03
2022-10-02T21:47:11.324Z,759.73
2022-10-02T21:50:08.775Z,760.03
2022-10-02T21:53:28.709Z,762.50
2022-10-02T21:56:42.907Z,743.73
2022-10-02T21:59:51.884Z,753.47
2022-10-02T22:02:31.692Z,749.77
2022-10-02T22:05:37.257Z,754.50
2022-10-02T22:08:13.879Z,756.33
2022-10-02T22:10:47.498Z,764.30
2022-10-02T22:13:23.496Z,764.97
2022-10-02T22:15:58.312Z,762.80
2022-10-02T22:18:32.433Z,753.97
2022-10-02T22:21:12.335Z,753.33
2022-10-02T22:23:58.861Z,754.10
2022-10-02T22:26:37.592Z,745.33
2022-10-02T22:29:10.788Z,750.43
2022-10-02T22:31:53.969Z,751.57
2022-10-02T22:34:32.211Z,756.90
2022-10-02T22:37:11.246Z,745.37
2022-10-02T22:39:42.537Z,750.30
2022-10-02T22:42:14.007Z,760.33
2022-10-02T22:44:45.746Z,744.37
2022-10-02T22:47:16.941Z,752.27
2022-10-02T22:49:51.713Z,749.17
2022-10-02T22:52:22.681Z,747.03
2022-10-02T22:54:57.432Z,742.13
2022-10-02T22:57:34.656Z,741.20
2022-10-02T23:00:13.397Z,748.57
2022-10-02T23:02:46.239Z,738.40
2022-10-02T23:05:16.847Z,736.70
2022-10-02T23:07:49.613Z,742.57
2022-10-02T23:10:25.729Z,737.00
2022-10-02T23:13:00.912Z,742.97
2022-10-02T23:15:41.846Z,744.63
2022-10-02T23:18:19.218Z,740.63
2022-10-02T23:20:52.601Z,738.87
2022-10-02T23:23:23.389Z,741.77
2022-10-02T23:25:56.651Z,744.20
2022-10-02T23:28:26.694Z,741.90
2022-10-02T23:31:03.034Z,740.60
2022-10-02T23:33:40.181Z,739.73
2022-10-02T23:36:21.301Z,740.17
2022-10-02T23:39:02.501Z,730.60
2022-10-02T23:41:40.140Z,731.73
2022-10-02T23:44:21.796Z,732.87
2022-10-02T23:47:21.188Z,735.03
2022-10-02T23:49:52.377Z,732.83
2022-10-02T23:52:51.244Z,730.10
2022-10-02T23:55:45.804Z,729.53
2022-10-02T23:58:30.475Z,715.50
